sensor_id;sensor_type;location;lat;lon;timestamp;temperature;humidity
25753;DHT22;13600;50.816;4.416;2023-03-03T00:02:09;6.10;99.90
25753;DHT22;13600;50.816;4.416;2023-03-03T00:04:35;6.00;99.90
25753;DHT22;13600;50.816;4.416;2023-03-03T00:07:00;6.00;99.90
25753;DHT22;13600;50.816;4.416;2023-03-03T00:09:26;5.70;99.90
25753;DHT22;13600;50.816;4.416;2023-03-03T00:11:57;5.60;99.90
25753;DHT22;13600;50.816;4.416;2023-03-03T00:14:31;5.30;99.90
25753;DHT22;13600;50.816;4.416;2023-03-03T00:17:00;5.30;99.90
25753;DHT22;13600;50.816;4.416;2023-03-03T00:19:26;5.20;99.90
25753;DHT22;13600;50.816;4.416;2023-03-03T00:21:52;5.40;99.90
25753;DHT22;13600;50.816;4.416;2023-03-03T00:24:35;5.40;99.90
25753;DHT22;13600;50.816;4.416;2023-03-03T00:27:15;5.30;99.90
25753;DHT22;13600;50.816;4.416;2023-03-03T00:29:45;5.30;99.90
25753;DHT22;13600;50.816;4.416;2023-03-03T00:32:21;5.10;99.90
25753;DHT22;13600;50.816;4.416;2023-03-03T00:34:48;5.20;99.90
25753;DHT22;13600;50.816;4.416;2023-03-03T00:37:25;5.30;99.90
25753;DHT22;13600;50.816;4.416;2023-03-03T00:39:52;5.00;99.90
25753;DHT22;13600;50.816;4.416;2023-03-03T00:42:18;5.00;99.90
25753;DHT22;13600;50.816;4.416;2023-03-03T00:44:46;4.90;99.90
25753;DHT22;13600;50.816;4.416;2023-03-03T00:49:52;5.20;99.90
25753;DHT22;13600;50.816;4.416;2023-03-03T00:52:19;5.00;99.90
25753;DHT22;13600;50.816;4.416;2023-03-03T00:54:45;4.90;99.90
25753;DHT22;13600;50.816;4.416;2023-03-03T00:57:11;4.90;99.90
25753;DHT22;13600;50.816;4.416;2023-03-03T00:59:40;4.90;99.90
25753;DHT22;13600;50.816;4.416;2023-03-03T01:02:06;4.90;99.90
25753;DHT22;13600;50.816;4.416;2023-03-03T01:04:32;5.10;99.90
25753;DHT22;13600;50.816;4.416;2023-03-03T01:06:58;5.30;99.90
25753;DHT22;13600;50.816;4.416;2023-03-03T01:09:23;5.40;99.90
25753;DHT22;13600;50.816;4.416;2023-03-03T01:11:49;5.40;99.90
25753;DHT22;13600;50.816;4.416;2023-03-03T01:14:15;5.30;99.90
25753;DHT22;13600;50.816;4.416;2023-03-03T01:16:41;5.30;99.90
25753;DHT22;13600;50.816;4.416;2023-03-03T01:19:07;5.30;99.90
25753;DHT22;13600;50.816;4.416;2023-03-03T01:21:33;5.10;99.90
25753;DHT22;13600;50.816;4.416;2023-03-03T01:23:59;4.80;99.90
25753;DHT22;13600;50.816;4.416;2023-03-03T01:26:24;4.90;99.90
25753;DHT22;13600;50.816;4.416;2023-03-03T01:28:51;4.80;99.90
25753;DHT22;13600;50.816;4.416;2023-03-03T01:31:18;4.80;99.90
25753;DHT22;13600;50.816;4.416;2023-03-03T01:33:43;4.80;99.90
25753;DHT22;13600;50.816;4.416;2023-03-03T01:36:09;4.70;99.90
25753;DHT22;13600;50.816;4.416;2023-03-03T01:38:36;4.90;99.90
25753;DHT22;13600;50.816;4.416;2023-03-03T01:41:02;5.10;99.90
25753;DHT22;13600;50.816;4.416;2023-03-03T01:43:29;5.00;99.90
25753;DHT22;13600;50.816;4.416;2023-03-03T01:48:24;4.90;99.90
25753;DHT22;13600;50.816;4.416;2023-03-03T01:53:48;4.90;99.90
25753;DHT22;13600;50.816;4.416;2023-03-03T01:56:15;5.00;99.90
25753;DHT22;13600;50.816;4.416;2023-03-03T01:58:48;5.30;99.90
25753;DHT22;13600;50.816;4.416;2023-03-03T02:01:19;5.30;99.90
25753;DHT22;13600;50.816;4.416;2023-03-03T02:03:46;5.10;99.90
25753;DHT22;13600;50.816;4.416;2023-03-03T02:06:17;4.80;99.90
25753;DHT22;13600;50.816;4.416;2023-03-03T02:08:47;4.90;99.90
25753;DHT22;13600;50.816;4.416;2023-03-03T02:11:15;4.90;99.90
25753;DHT22;13600;50.816;4.416;2023-03-03T02:13:41;5.20;99.90
25753;DHT22;13600;50.816;4.416;2023-03-03T02:16:07;5.00;99.90
25753;DHT22;13600;50.816;4.416;2023-03-03T02:18:33;4.90;99.90
25753;DHT22;13600;50.816;4.416;2023-03-03T02:21:20;4.90;99.90
25753;DHT22;13600;50.816;4.416;2023-03-03T02:26:22;4.60;99.90
25753;DHT22;13600;50.816;4.416;2023-03-03T02:28:49;4.70;99.90
25753;DHT22;13600;50.816;4.416;2023-03-03T02:31:19;4.70;99.90
25753;DHT22;13600;50.816;4.416;2023-03-03T02:33:47;4.80;99.90
25753;DHT22;13600;50.816;4.416;2023-03-03T02:36:16;4.80;99.90
25753;DHT22;13600;50.816;4.416;2023-03-03T02:38:47;4.80;99.90
25753;DHT22;13600;50.816;4.416;2023-03-03T02:44:27;5.00;99.90
25753;DHT22;13600;50.816;4.416;2023-03-03T02:46:55;5.30;99.90
25753;DHT22;13600;50.816;4.416;2023-03-03T02:49:25;5.30;99.90
25753;DHT22;13600;50.816;4.416;2023-03-03T02:51:52;5.40;99.90
25753;DHT22;13600;50.816;4.416;2023-03-03T02:54:20;5.30;99.90
25753;DHT22;13600;50.816;4.416;2023-03-03T02:56:46;5.20;99.90
25753;DHT22;13600;50.816;4.416;2023-03-03T02:59:12;5.20;99.90
25753;DHT22;13600;50.816;4.416;2023-03-03T03:01:38;5.40;99.90
25753;DHT22;13600;50.816;4.416;2023-03-03T03:04:24;5.40;99.90
25753;DHT22;13600;50.816;4.416;2023-03-03T03:06:51;5.10;99.90
25753;DHT22;13600;50.816;4.416;2023-03-03T03:09:19;5.10;99.90
25753;DHT22;13600;50.816;4.416;2023-03-03T03:11:46;5.20;99.90
25753;DHT22;13600;50.816;4.416;2023-03-03T03:14:13;5.30;99.90
25753;DHT22;13600;50.816;4.416;2023-03-03T03:16:40;5.30;99.90
25753;DHT22;13600;50.816;4.416;2023-03-03T03:19:06;5.10;99.90
25753;DHT22;13600;50.816;4.416;2023-03-03T03:21:32;5.20;99.90
25753;DHT22;13600;50.816;4.416;2023-03-03T03:23:58;5.10;99.90
25753;DHT22;13600;50.816;4.416;2023-03-03T03:26:24;5.20;99.90
25753;DHT22;13600;50.816;4.416;2023-03-03T03:28:52;5.30;99.90
25753;DHT22;13600;50.816;4.416;2023-03-03T03:31:19;5.30;99.90
25753;DHT22;13600;50.816;4.416;2023-03-03T03:33:46;5.00;99.90
25753;DHT22;13600;50.816;4.416;2023-03-03T03:36:13;5.20;99.90
25753;DHT22;13600;50.816;4.416;2023-03-03T03:38:38;5.10;99.90
25753;DHT22;13600;50.816;4.416;2023-03-03T03:41:05;5.10;99.90
25753;DHT22;13600;50.816;4.416;2023-03-03T03:43:32;5.40;99.90
25753;DHT22;13600;50.816;4.416;2023-03-03T03:45:58;5.60;99.90
25753;DHT22;13600;50.816;4.416;2023-03-03T03:48:23;5.60;99.90
25753;DHT22;13600;50.816;4.416;2023-03-03T03:50:49;5.40;99.90
25753;DHT22;13600;50.816;4.416;2023-03-03T03:53:16;5.20;99.90
25753;DHT22;13600;50.816;4.416;2023-03-03T03:55:44;5.20;99.90
25753;DHT22;13600;50.816;4.416;2023-03-03T03:58:13;4.90;99.90
25753;DHT22;13600;50.816;4.416;2023-03-03T04:00:43;4.70;99.90
25753;DHT22;13600;50.816;4.416;2023-03-03T04:03:09;4.40;99.90
25753;DHT22;13600;50.816;4.416;2023-03-03T04:05:36;4.40;99.90
25753;DHT22;13600;50.816;4.416;2023-03-03T04:08:02;4.30;99.90
25753;DHT22;13600;50.816;4.416;2023-03-03T04:10:28;4.60;99.90
25753;DHT22;13600;50.816;4.416;2023-03-03T04:12:55;4.70;99.90
25753;DHT22;13600;50.816;4.416;2023-03-03T04:15:22;4.90;99.90
25753;DHT22;13600;50.816;4.416;2023-03-03T04:17:47;5.10;99.90
25753;DHT22;13600;50.816;4.416;2023-03-03T04:20:14;5.20;99.90
25753;DHT22;13600;50.816;4.416;2023-03-03T04:22:41;5.20;99.90
25753;DHT22;13600;50.816;4.416;2023-03-03T04:25:08;5.20;99.90
25753;DHT22;13600;50.816;4.416;2023-03-03T04:27:35;5.20;99.90
25753;DHT22;13600;50.816;4.416;2023-03-03T04:30:02;5.20;99.90
25753;DHT22;13600;50.816;4.416;2023-03-03T04:32:28;5.10;99.90
25753;DHT22;13600;50.816;4.416;2023-03-03T04:34:55;4.90;99.90
25753;DHT22;13600;50.816;4.416;2023-03-03T04:37:21;4.90;99.90
25753;DHT22;13600;50.816;4.416;2023-03-03T04:39:46;4.60;99.90
25753;DHT22;13600;50.816;4.416;2023-03-03T04:42:12;4.60;99.90
25753;DHT22;13600;50.816;4.416;2023-03-03T04:44:38;4.70;99.90
25753;DHT22;13600;50.816;4.416;2023-03-03T04:47:03;4.80;99.90
25753;DHT22;13600;50.816;4.416;2023-03-03T04:49:29;4.90;99.90
25753;DHT22;13600;50.816;4.416;2023-03-03T04:51:56;4.70;99.90
25753;DHT22;13600;50.816;4.416;2023-03-03T04:54:22;4.80;99.90
25753;DHT22;13600;50.816;4.416;2023-03-03T04:56:48;5.00;99.90
25753;DHT22;13600;50.816;4.416;2023-03-03T04:59:14;4.90;99.90
25753;DHT22;13600;50.816;4.416;2023-03-03T05:01:39;5.00;99.90
25753;DHT22;13600;50.816;4.416;2023-03-03T05:04:06;4.90;99.90
25753;DHT22;13600;50.816;4.416;2023-03-03T05:06:36;5.10;99.90
25753;DHT22;13600;50.816;4.416;2023-03-03T05:09:01;5.30;99.90
25753;DHT22;13600;50.816;4.416;2023-03-03T05:11:27;5.10;99.90
25753;DHT22;13600;50.816;4.416;2023-03-03T05:13:59;4.80;99.90
25753;DHT22;13600;50.816;4.416;2023-03-03T05:16:24;4.00;99.90
25753;DHT22;13600;50.816;4.416;2023-03-03T05:18:51;4.20;99.90
25753;DHT22;13600;50.816;4.416;2023-03-03T05:21:17;4.40;99.90
25753;DHT22;13600;50.816;4.416;2023-03-03T05:23:42;4.40;99.90
25753;DHT22;13600;50.816;4.416;2023-03-03T05:26:08;4.50;99.90
25753;DHT22;13600;50.816;4.416;2023-03-03T05:28:33;4.30;99.90
25753;DHT22;13600;50.816;4.416;2023-03-03T05:31:00;4.30;99.90
25753;DHT22;13600;50.816;4.416;2023-03-03T05:33:26;4.50;99.90
25753;DHT22;13600;50.816;4.416;2023-03-03T05:35:56;4.70;99.90
25753;DHT22;13600;50.816;4.416;2023-03-03T05:38:24;4.70;99.90
25753;DHT22;13600;50.816;4.416;2023-03-03T05:40:50;4.80;99.90
25753;DHT22;13600;50.816;4.416;2023-03-03T05:43:16;4.80;99.90
25753;DHT22;13600;50.816;4.416;2023-03-03T05:45:43;4.80;99.90
25753;DHT22;13600;50.816;4.416;2023-03-03T05:48:09;4.90;99.90
25753;DHT22;13600;50.816;4.416;2023-03-03T05:50:36;5.00;99.90
25753;DHT22;13600;50.816;4.416;2023-03-03T05:53:02;5.00;99.90
25753;DHT22;13600;50.816;4.416;2023-03-03T05:55:28;4.90;99.90
25753;DHT22;13600;50.816;4.416;2023-03-03T05:57:54;4.90;99.90
25753;DHT22;13600;50.816;4.416;2023-03-03T06:00:20;4.80;99.90
25753;DHT22;13600;50.816;4.416;2023-03-03T06:02:46;4.80;99.90
25753;DHT22;13600;50.816;4.416;2023-03-03T06:05:12;4.70;99.90
25753;DHT22;13600;50.816;4.416;2023-03-03T06:07:38;4.50;99.90
25753;DHT22;13600;50.816;4.416;2023-03-03T06:10:04;4.20;99.90
25753;DHT22;13600;50.816;4.416;2023-03-03T06:12:30;4.00;99.90
25753;DHT22;13600;50.816;4.416;2023-03-03T06:14:56;3.80;99.90
25753;DHT22;13600;50.816;4.416;2023-03-03T06:17:22;4.00;99.90
25753;DHT22;13600;50.816;4.416;2023-03-03T06:19:50;3.90;99.90
25753;DHT22;13600;50.816;4.416;2023-03-03T06:22:17;3.90;99.90
25753;DHT22;13600;50.816;4.416;2023-03-03T06:24:43;3.90;99.90
25753;DHT22;13600;50.816;4.416;2023-03-03T06:27:09;3.80;99.90
25753;DHT22;13600;50.816;4.416;2023-03-03T06:29:35;3.60;99.90
25753;DHT22;13600;50.816;4.416;2023-03-03T06:32:01;3.80;99.90
25753;DHT22;13600;50.816;4.416;2023-03-03T06:34:27;3.90;99.90
25753;DHT22;13600;50.816;4.416;2023-03-03T06:36:53;4.10;99.90
25753;DHT22;13600;50.816;4.416;2023-03-03T06:39:18;3.90;99.90
25753;DHT22;13600;50.816;4.416;2023-03-03T06:41:44;3.80;99.90
25753;DHT22;13600;50.816;4.416;2023-03-03T06:44:12;3.80;99.90
25753;DHT22;13600;50.816;4.416;2023-03-03T06:46:38;4.00;99.90
25753;DHT22;13600;50.816;4.416;2023-03-03T06:49:03;3.80;99.90
25753;DHT22;13600;50.816;4.416;2023-03-03T06:51:34;4.00;99.90
25753;DHT22;13600;50.816;4.416;2023-03-03T06:54:18;4.10;99.90
25753;DHT22;13600;50.816;4.416;2023-03-03T06:56:45;3.90;99.90
25753;DHT22;13600;50.816;4.416;2023-03-03T06:59:19;3.90;99.90
25753;DHT22;13600;50.816;4.416;2023-03-03T07:01:47;3.60;99.90
25753;DHT22;13600;50.816;4.416;2023-03-03T07:06:50;3.90;99.90
25753;DHT22;13600;50.816;4.416;2023-03-03T07:09:26;4.10;99.90
25753;DHT22;13600;50.816;4.416;2023-03-03T07:11:56;4.30;99.90
25753;DHT22;13600;50.816;4.416;2023-03-03T07:14:25;4.00;99.90
25753;DHT22;13600;50.816;4.416;2023-03-03T07:16:58;4.00;99.90
25753;DHT22;13600;50.816;4.416;2023-03-03T07:19:32;4.00;99.90
25753;DHT22;13600;50.816;4.416;2023-03-03T07:22:21;4.40;99.90
25753;DHT22;13600;50.816;4.416;2023-03-03T07:24:48;4.50;99.90
25753;DHT22;13600;50.816;4.416;2023-03-03T07:27:26;4.50;99.90
25753;DHT22;13600;50.816;4.416;2023-03-03T07:29:54;4.20;99.90
25753;DHT22;13600;50.816;4.416;2023-03-03T07:32:33;4.10;99.90
25753;DHT22;13600;50.816;4.416;2023-03-03T07:35:01;4.20;99.90
25753;DHT22;13600;50.816;4.416;2023-03-03T07:39:58;3.30;99.90
25753;DHT22;13600;50.816;4.416;2023-03-03T07:42:39;3.80;99.90
25753;DHT22;13600;50.816;4.416;2023-03-03T07:45:28;4.10;99.90
25753;DHT22;13600;50.816;4.416;2023-03-03T07:50:34;4.20;99.90
25753;DHT22;13600;50.816;4.416;2023-03-03T07:53:00;4.30;99.90
25753;DHT22;13600;50.816;4.416;2023-03-03T07:55:29;4.40;99.90
25753;DHT22;13600;50.816;4.416;2023-03-03T07:58:13;4.30;99.90
25753;DHT22;13600;50.816;4.416;2023-03-03T08:03:34;4.50;99.90
25753;DHT22;13600;50.816;4.416;2023-03-03T08:06:23;4.60;99.90
25753;DHT22;13600;50.816;4.416;2023-03-03T08:08:55;4.40;99.90
25753;DHT22;13600;50.816;4.416;2023-03-03T08:11:24;4.50;99.90
25753;DHT22;13600;50.816;4.416;2023-03-03T08:13:49;4.40;99.90
25753;DHT22;13600;50.816;4.416;2023-03-03T08:18:43;4.10;99.90
25753;DHT22;13600;50.816;4.416;2023-03-03T08:21:15;3.80;99.90
25753;DHT22;13600;50.816;4.416;2023-03-03T08:23:41;3.60;99.90
25753;DHT22;13600;50.816;4.416;2023-03-03T08:26:07;3.80;99.90
25753;DHT22;13600;50.816;4.416;2023-03-03T08:28:34;3.90;99.90
25753;DHT22;13600;50.816;4.416;2023-03-03T08:30:59;4.00;99.90
25753;DHT22;13600;50.816;4.416;2023-03-03T08:33:25;4.20;99.90
25753;DHT22;13600;50.816;4.416;2023-03-03T08:35:51;4.30;99.90
25753;DHT22;13600;50.816;4.416;2023-03-03T08:38:18;4.10;99.90
25753;DHT22;13600;50.816;4.416;2023-03-03T08:40:45;4.10;99.90
25753;DHT22;13600;50.816;4.416;2023-03-03T08:43:12;4.00;99.90
25753;DHT22;13600;50.816;4.416;2023-03-03T08:45:45;4.10;99.90
25753;DHT22;13600;50.816;4.416;2023-03-03T08:48:11;4.30;99.90
25753;DHT22;13600;50.816;4.416;2023-03-03T08:50:37;4.30;99.90
25753;DHT22;13600;50.816;4.416;2023-03-03T08:53:03;4.30;99.90
25753;DHT22;13600;50.816;4.416;2023-03-03T08:55:29;4.30;99.90
25753;DHT22;13600;50.816;4.416;2023-03-03T08:57:56;4.40;99.90
25753;DHT22;13600;50.816;4.416;2023-03-03T09:00:23;4.50;99.90
25753;DHT22;13600;50.816;4.416;2023-03-03T09:02:49;4.70;99.90
25753;DHT22;13600;50.816;4.416;2023-03-03T09:05:16;4.60;99.90
25753;DHT22;13600;50.816;4.416;2023-03-03T09:07:43;4.50;99.90
25753;DHT22;13600;50.816;4.416;2023-03-03T09:10:10;4.40;99.90
25753;DHT22;13600;50.816;4.416;2023-03-03T09:12:45;4.40;99.90
25753;DHT22;13600;50.816;4.416;2023-03-03T09:15:20;4.60;99.90
25753;DHT22;13600;50.816;4.416;2023-03-03T09:17:49;4.50;99.90
25753;DHT22;13600;50.816;4.416;2023-03-03T09:20:38;4.70;99.90
25753;DHT22;13600;50.816;4.416;2023-03-03T09:25:49;4.70;99.90
25753;DHT22;13600;50.816;4.416;2023-03-03T09:28:33;4.50;99.90
25753;DHT22;13600;50.816;4.416;2023-03-03T09:31:02;4.20;99.90
25753;DHT22;13600;50.816;4.416;2023-03-03T09:33:41;4.60;99.90
25753;DHT22;13600;50.816;4.416;2023-03-03T09:36:28;4.60;99.90
25753;DHT22;13600;50.816;4.416;2023-03-03T09:38:56;4.60;99.90
25753;DHT22;13600;50.816;4.416;2023-03-03T09:50:14;4.70;99.90
25753;DHT22;13600;50.816;4.416;2023-03-03T09:52:55;4.50;99.90
25753;DHT22;13600;50.816;4.416;2023-03-03T10:01:37;4.80;99.90
25753;DHT22;13600;50.816;4.416;2023-03-03T10:04:10;5.00;99.90
25753;DHT22;13600;50.816;4.416;2023-03-03T10:07:09;4.90;99.90
25753;DHT22;13600;50.816;4.416;2023-03-03T10:17:40;4.90;99.90
25753;DHT22;13600;50.816;4.416;2023-03-03T10:23:04;5.20;99.90
25753;DHT22;13600;50.816;4.416;2023-03-03T10:25:45;5.50;99.90
25753;DHT22;13600;50.816;4.416;2023-03-03T10:42:40;5.70;99.90
25753;DHT22;13600;50.816;4.416;2023-03-03T10:59:09;6.00;99.90
25753;DHT22;13600;50.816;4.416;2023-03-03T11:01:58;5.80;99.90
25753;DHT22;13600;50.816;4.416;2023-03-03T11:04:57;5.60;99.90
25753;DHT22;13600;50.816;4.416;2023-03-03T11:07:40;5.70;99.90
25753;DHT22;13600;50.816;4.416;2023-03-03T11:13:09;5.50;99.90
25753;DHT22;13600;50.816;4.416;2023-03-03T11:15:46;5.80;99.90
25753;DHT22;13600;50.816;4.416;2023-03-03T11:21:07;6.60;99.90
25753;DHT22;13600;50.816;4.416;2023-03-03T11:23:44;6.70;99.90
25753;DHT22;13600;50.816;4.416;2023-03-03T11:31:56;6.30;99.90
25753;DHT22;13600;50.816;4.416;2023-03-03T11:37:42;6.50;99.90
25753;DHT22;13600;50.816;4.416;2023-03-03T11:40:33;6.30;99.90
25753;DHT22;13600;50.816;4.416;2023-03-03T11:43:18;6.10;99.90
25753;DHT22;13600;50.816;4.416;2023-03-03T11:45:47;5.90;99.90
25753;DHT22;13600;50.816;4.416;2023-03-03T11:48:20;6.10;99.90
25753;DHT22;13600;50.816;4.416;2023-03-03T11:50:54;6.30;99.90
25753;DHT22;13600;50.816;4.416;2023-03-03T11:56:09;6.60;99.90
25753;DHT22;13600;50.816;4.416;2023-03-03T11:58:53;6.80;99.90
25753;DHT22;13600;50.816;4.416;2023-03-03T12:01:43;7.30;99.90
25753;DHT22;13600;50.816;4.416;2023-03-03T12:04:34;7.50;99.90
25753;DHT22;13600;50.816;4.416;2023-03-03T12:07:21;7.70;99.90
25753;DHT22;13600;50.816;4.416;2023-03-03T12:10:02;7.80;99.90
25753;DHT22;13600;50.816;4.416;2023-03-03T12:12:37;8.10;99.90
25753;DHT22;13600;50.816;4.416;2023-03-03T12:17:54;8.10;99.90
25753;DHT22;13600;50.816;4.416;2023-03-03T12:23:09;8.60;99.90
25753;DHT22;13600;50.816;4.416;2023-03-03T12:28:18;9.10;99.90
25753;DHT22;13600;50.816;4.416;2023-03-03T12:33:57;9.20;99.90
25753;DHT22;13600;50.816;4.416;2023-03-03T12:45:07;9.40;99.90
25753;DHT22;13600;50.816;4.416;2023-03-03T12:47:59;9.30;99.90
25753;DHT22;13600;50.816;4.416;2023-03-03T12:50:41;9.40;99.90
25753;DHT22;13600;50.816;4.416;2023-03-03T12:56:03;10.00;99.90
25753;DHT22;13600;50.816;4.416;2023-03-03T13:05:01;12.40;99.90
25753;DHT22;13600;50.816;4.416;2023-03-03T13:10:21;13.30;99.90
25753;DHT22;13600;50.816;4.416;2023-03-03T13:12:59;13.10;99.90
25753;DHT22;13600;50.816;4.416;2023-03-03T13:15:30;12.40;99.90
25753;DHT22;13600;50.816;4.416;2023-03-03T13:21:02;11.00;99.90
25753;DHT22;13600;50.816;4.416;2023-03-03T13:26:27;10.40;99.90
25753;DHT22;13600;50.816;4.416;2023-03-03T13:29:14;11.50;99.90
25753;DHT22;13600;50.816;4.416;2023-03-03T13:32:03;13.40;99.90
25753;DHT22;13600;50.816;4.416;2023-03-03T13:37:23;17.50;95.50
25753;DHT22;13600;50.816;4.416;2023-03-03T13:42:44;18.40;87.50
25753;DHT22;13600;50.816;4.416;2023-03-03T13:53:50;18.70;81.90
25753;DHT22;13600;50.816;4.416;2023-03-03T14:05:10;20.50;72.50
25753;DHT22;13600;50.816;4.416;2023-03-03T14:07:55;19.90;73.60
25753;DHT22;13600;50.816;4.416;2023-03-03T14:13:12;20.10;72.10
25753;DHT22;13600;50.816;4.416;2023-03-03T14:16:04;19.80;72.60
25753;DHT22;13600;50.816;4.416;2023-03-03T14:18:43;20.70;72.00
25753;DHT22;13600;50.816;4.416;2023-03-03T14:21:18;20.70;69.40
25753;DHT22;13600;50.816;4.416;2023-03-03T14:24:07;20.20;69.90
25753;DHT22;13600;50.816;4.416;2023-03-03T14:26:56;20.10;70.50
25753;DHT22;13600;50.816;4.416;2023-03-03T14:31:51;20.30;69.20
25753;DHT22;13600;50.816;4.416;2023-03-03T14:36:50;19.30;71.50
25753;DHT22;13600;50.816;4.416;2023-03-03T14:39:38;19.10;72.40
25753;DHT22;13600;50.816;4.416;2023-03-03T14:42:30;20.00;71.70
25753;DHT22;13600;50.816;4.416;2023-03-03T14:45:00;20.20;69.90
25753;DHT22;13600;50.816;4.416;2023-03-03T14:47:29;19.80;69.10
25753;DHT22;13600;50.816;4.416;2023-03-03T14:49:57;18.90;71.10
25753;DHT22;13600;50.816;4.416;2023-03-03T14:52:27;18.60;71.90
25753;DHT22;13600;50.816;4.416;2023-03-03T14:54:58;18.60;72.70
25753;DHT22;13600;50.816;4.416;2023-03-03T15:05:23;18.20;72.90
25753;DHT22;13600;50.816;4.416;2023-03-03T15:07:57;18.10;73.60
25753;DHT22;13600;50.816;4.416;2023-03-03T15:10:30;17.70;73.30
25753;DHT22;13600;50.816;4.416;2023-03-03T15:12:57;17.80;74.90
25753;DHT22;13600;50.816;4.416;2023-03-03T15:15:24;17.90;74.20
25753;DHT22;13600;50.816;4.416;2023-03-03T15:20:44;18.10;75.30
25753;DHT22;13600;50.816;4.416;2023-03-03T15:31:20;18.50;73.00
25753;DHT22;13600;50.816;4.416;2023-03-03T15:34:07;17.90;74.10
25753;DHT22;13600;50.816;4.416;2023-03-03T15:39:47;17.90;75.40
25753;DHT22;13600;50.816;4.416;2023-03-03T15:42:36;17.70;75.70
25753;DHT22;13600;50.816;4.416;2023-03-03T15:45:36;17.10;76.50
25753;DHT22;13600;50.816;4.416;2023-03-03T15:52:09;17.30;77.00
25753;DHT22;13600;50.816;4.416;2023-03-03T15:54:56;17.10;77.70
25753;DHT22;13600;50.816;4.416;2023-03-03T15:57:03;16.30;78.70
25753;DHT22;13600;50.816;4.416;2023-03-03T16:00:32;15.80;81.70
25753;DHT22;13600;50.816;4.416;2023-03-03T16:03:30;16.20;81.20
25753;DHT22;13600;50.816;4.416;2023-03-03T16:06:04;16.30;81.00
25753;DHT22;13600;50.816;4.416;2023-03-03T16:16:51;15.70;82.00
25753;DHT22;13600;50.816;4.416;2023-03-03T16:19:47;15.20;83.70
25753;DHT22;13600;50.816;4.416;2023-03-03T16:28:18;13.60;90.70
25753;DHT22;13600;50.816;4.416;2023-03-03T16:33:33;12.20;94.80
25753;DHT22;13600;50.816;4.416;2023-03-03T16:38:44;11.90;97.30
25753;DHT22;13600;50.816;4.416;2023-03-03T16:41:41;11.60;98.20
25753;DHT22;13600;50.816;4.416;2023-03-03T16:46:47;11.20;99.90
25753;DHT22;13600;50.816;4.416;2023-03-03T16:52:11;10.90;99.90
25753;DHT22;13600;50.816;4.416;2023-03-03T16:54:50;10.80;99.90
25753;DHT22;13600;50.816;4.416;2023-03-03T16:57:41;10.70;99.90
25753;DHT22;13600;50.816;4.416;2023-03-03T17:00:29;10.70;99.90
25753;DHT22;13600;50.816;4.416;2023-03-03T17:16:59;10.30;99.90
25753;DHT22;13600;50.816;4.416;2023-03-03T17:30:48;10.10;99.90
25753;DHT22;13600;50.816;4.416;2023-03-03T17:33:53;10.20;99.90
25753;DHT22;13600;50.816;4.416;2023-03-03T17:44:37;9.90;99.90
25753;DHT22;13600;50.816;4.416;2023-03-03T17:47:07;9.80;99.90
25753;DHT22;13600;50.816;4.416;2023-03-03T17:49:50;9.90;99.90
25753;DHT22;13600;50.816;4.416;2023-03-03T17:55:28;9.70;99.90
25753;DHT22;13600;50.816;4.416;2023-03-03T17:58:08;9.60;99.90
25753;DHT22;13600;50.816;4.416;2023-03-03T18:06:41;9.50;99.90
25753;DHT22;13600;50.816;4.416;2023-03-03T18:21:20;9.40;99.90
25753;DHT22;13600;50.816;4.416;2023-03-03T18:23:48;9.50;99.90
25753;DHT22;13600;50.816;4.416;2023-03-03T18:26:34;9.40;99.90
25753;DHT22;13600;50.816;4.416;2023-03-03T18:34:38;9.20;99.90
25753;DHT22;13600;50.816;4.416;2023-03-03T18:42:37;9.00;99.90
25753;DHT22;13600;50.816;4.416;2023-03-03T18:48:09;9.20;99.90
25753;DHT22;13600;50.816;4.416;2023-03-03T18:50:37;9.10;99.90
25753;DHT22;13600;50.816;4.416;2023-03-03T18:53:28;9.20;99.90
25753;DHT22;13600;50.816;4.416;2023-03-03T18:55:57;9.20;99.90
25753;DHT22;13600;50.816;4.416;2023-03-03T18:58:34;9.20;99.90
25753;DHT22;13600;50.816;4.416;2023-03-03T19:04:02;9.20;99.90
25753;DHT22;13600;50.816;4.416;2023-03-03T19:09:03;9.50;99.90
25753;DHT22;13600;50.816;4.416;2023-03-03T19:11:49;9.40;99.90
25753;DHT22;13600;50.816;4.416;2023-03-03T19:16:51;9.40;99.90
25753;DHT22;13600;50.816;4.416;2023-03-03T19:19:19;9.40;99.90
25753;DHT22;13600;50.816;4.416;2023-03-03T19:27:39;9.50;99.90
25753;DHT22;13600;50.816;4.416;2023-03-03T19:43:59;9.60;99.90
25753;DHT22;13600;50.816;4.416;2023-03-03T19:55:01;9.40;99.90
25753;DHT22;13600;50.816;4.416;2023-03-03T20:00:42;9.20;99.90
25753;DHT22;13600;50.816;4.416;2023-03-03T20:09:21;9.60;99.90
25753;DHT22;13600;50.816;4.416;2023-03-03T20:24:18;9.30;99.90
25753;DHT22;13600;50.816;4.416;2023-03-03T20:29:55;8.90;99.90
25753;DHT22;13600;50.816;4.416;2023-03-03T20:49:10;8.90;99.90
25753;DHT22;13600;50.816;4.416;2023-03-03T20:52:13;8.80;99.90
25753;DHT22;13600;50.816;4.416;2023-03-03T20:54:55;9.10;99.90
25753;DHT22;13600;50.816;4.416;2023-03-03T21:00:30;9.00;99.90
25753;DHT22;13600;50.816;4.416;2023-03-03T21:05:25;9.00;99.90
25753;DHT22;13600;50.816;4.416;2023-03-03T21:07:55;8.90;99.90
25753;DHT22;13600;50.816;4.416;2023-03-03T21:10:24;8.90;99.90
25753;DHT22;13600;50.816;4.416;2023-03-03T21:12:52;8.90;99.90
25753;DHT22;13600;50.816;4.416;2023-03-03T21:15:31;8.70;99.90
25753;DHT22;13600;50.816;4.416;2023-03-03T21:18:17;8.70;99.90
25753;DHT22;13600;50.816;4.416;2023-03-03T21:20:44;8.70;99.90
25753;DHT22;13600;50.816;4.416;2023-03-03T21:23:09;8.70;99.90
25753;DHT22;13600;50.816;4.416;2023-03-03T21:28:30;8.80;99.90
25753;DHT22;13600;50.816;4.416;2023-03-03T21:31:14;8.80;99.90
25753;DHT22;13600;50.816;4.416;2023-03-03T21:33:56;8.80;99.90
25753;DHT22;13600;50.816;4.416;2023-03-03T21:38:57;8.40;99.90
25753;DHT22;13600;50.816;4.416;2023-03-03T21:41:23;8.40;99.90
25753;DHT22;13600;50.816;4.416;2023-03-03T21:43:53;8.40;99.90
25753;DHT22;13600;50.816;4.416;2023-03-03T21:46:23;8.50;99.90
25753;DHT22;13600;50.816;4.416;2023-03-03T21:48:52;8.50;99.90
25753;DHT22;13600;50.816;4.416;2023-03-03T21:51:18;8.30;99.90
25753;DHT22;13600;50.816;4.416;2023-03-03T21:53:46;8.20;99.90
25753;DHT22;13600;50.816;4.416;2023-03-03T21:56:12;8.30;99.90
25753;DHT22;13600;50.816;4.416;2023-03-03T21:58:41;8.40;99.90
25753;DHT22;13600;50.816;4.416;2023-03-03T22:01:07;8.50;99.90
25753;DHT22;13600;50.816;4.416;2023-03-03T22:03:33;8.60;99.90
25753;DHT22;13600;50.816;4.416;2023-03-03T22:06:00;8.90;99.90
25753;DHT22;13600;50.816;4.416;2023-03-03T22:08:27;8.90;99.90
25753;DHT22;13600;50.816;4.416;2023-03-03T22:10:53;8.70;99.90
25753;DHT22;13600;50.816;4.416;2023-03-03T22:13:26;8.60;99.90
25753;DHT22;13600;50.816;4.416;2023-03-03T22:15:53;8.50;99.90
25753;DHT22;13600;50.816;4.416;2023-03-03T22:18:19;8.30;99.90
25753;DHT22;13600;50.816;4.416;2023-03-03T22:20:46;8.10;99.90
25753;DHT22;13600;50.816;4.416;2023-03-03T22:23:13;8.50;99.90
25753;DHT22;13600;50.816;4.416;2023-03-03T22:25:39;8.70;99.90
25753;DHT22;13600;50.816;4.416;2023-03-03T22:28:05;8.80;99.90
25753;DHT22;13600;50.816;4.416;2023-03-03T22:30:31;8.60;99.90